Flight Track Log - Related Links

Times and Time Zones

All times are in EDT time to prevent confusion due to time zone crossing. See the ANT508 flight status page for this flight to view local times or setup timezone preferences in your user account.

Time Position Orientation Groundspeed Altitude Reporting Facility
EDT Latitude Longitude Course Direction KTS MPH feet Rate Location/Type
Wed 04:39:41 PM 53.3190 -113.6130 317° Northwest 182 209 3,700  Level FlightAware ADS-B
Wed 04:40:06 PM 53.3360 -113.6400 317° Northwest 218 251 4,500 2,850 Climbing FlightAware ADS-B
Wed 04:40:21 PM 53.3480 -113.6570 320° Northwest 213 245 5,600 2,800 Climbing FlightAware ADS-B
Wed 04:40:51 PM 53.3690 -113.6940 314° West 246 283 6,600 2,267 Climbing FlightAware ADS-B
Wed 04:41:06 PM 53.3780 -113.7190 301° West 252 290 7,300 3,467 Climbing FlightAware ADS-B
Wed 04:41:36 PM 53.3970 -113.7690 303° West 254 292 9,200 3,512 Climbing FlightAware ADS-B
Wed 04:41:47 PM 53.4030 -113.7850 302° West 256 295 9,700 2,073 Climbing FlightAware ADS-B
Wed 04:42:31 PM 53.4350 -113.8690 303° West 309 356 11,100 1,929 Climbing FlightAware ADS-B
Wed 04:43:11 PM 53.4670 -113.9530 303° West 341 392 12,400 2,240 Climbing FlightAware ADS-B
Wed 04:43:46 PM 53.4980 -114.0340 303° West 356 410 13,900 3,040 Climbing FlightAware ADS-B
Wed 04:44:26 PM 53.5330 -114.1260 303° West 349 402 16,200 3,106 Climbing FlightAware ADS-B
Wed 04:45:11 PM 53.5720 -114.2280 303° West 352 405 18,300 2,400 Climbing FlightAware ADS-B
Wed 04:45:46 PM 53.6030 -114.3110 302° West 367 422 19,400 2,160 Climbing FlightAware ADS-B
Wed 04:46:26 PM 53.6380 -114.4050 302° West 370 426 21,000 2,329 Climbing FlightAware ADS-B
Wed 04:47:11 PM 53.6810 -114.5200 302° West 377 434 22,700 2,080 Climbing FlightAware ADS-B
Wed 04:47:41 PM 53.7090 -114.5960 302° West 387 445 23,600 1,875 Climbing FlightAware ADS-B
Wed 04:48:31 PM 53.7570 -114.7250 302° West 393 452 25,200 2,133 Climbing FlightAware ADS-B
Wed 04:49:11 PM 53.7950 -114.8290 302° West 388 447 26,800 2,057 Climbing FlightAware ADS-B
Wed 04:49:41 PM 53.8230 -114.9050 302° West 392 451 27,600 1,350 Climbing FlightAware ADS-B
Wed 04:50:31 PM 53.8700 -115.0300 303° West 404 465 28,600 1,553 Climbing FlightAware ADS-B
Wed 04:51:06 PM 53.9060 -115.1310 301° West 400 460 29,800 2,025 Climbing FlightAware ADS-B
Wed 04:51:51 PM 53.9490 -115.2490 302° West 389 448 31,300 1,860 Climbing FlightAware ADS-B
Wed 04:52:46 PM 53.9980 -115.3840 302° West 381 438 32,900 1,527 Climbing FlightAware ADS-B
Wed 04:53:41 PM 54.0500 -115.5290 301° West 381 438 34,100 1,200 Climbing FlightAware ADS-B
Wed 04:54:36 PM 54.1010 -115.6700 302° West 382 440 35,100 1,074 Climbing FlightAware ADS-B
Wed 04:55:16 PM 54.1350 -115.7660 301° West 380 437 35,800 587 Climbing FlightAware ADS-B
Wed 04:56:08 PM 54.1900 -115.8890 307° West 384 442 36,000 114 Climbing FlightAware ADS-B
Wed 04:57:01 PM 54.2540 -116.0190 310° West 382 440 36,000  Level FlightAware ADS-B
Wed 04:57:36 PM 54.2880 -116.0900 309° West 382 440 36,000  Level FlightAware ADS-B
Wed 04:58:25 PM 54.3340 -116.1880 309° West 382 440 36,000  Level FlightAware ADS-B
Wed 04:59:03 PM 54.3870 -116.2960 310° West 382 440 36,000  Level FlightAware ADS-B
Wed 05:00:16 PM 54.4720 -116.4730 310° West 388 447 36,000  Level FlightAware ADS-B
Wed 05:00:52 PM 54.5070 -116.5460 310° West 388 447 36,000  Level FlightAware ADS-B
Wed 05:01:39 PM 54.5520 -116.6420 309° West 388 447 36,000  Level FlightAware ADS-B
Wed 05:02:36 PM 54.6330 -116.8120 310° West 36,000  Level FlightAware ADS-B
Wed 05:04:01 PM 54.7000 -117.0500 310° West 380 437 36,000  Level Edmonton Center
Wed 05:09:43 PM 55.1040 -117.8350 310° West 384 442 36,000  Level FlightAware ADS-B
Wed 05:10:24 PM 55.1430 -117.9210 308° West 384 442 36,000  Level FlightAware ADS-B
Wed 05:10:58 PM 55.1740 -117.9920 307° West 384 442 36,000  Level FlightAware ADS-B
Wed 05:11:37 PM 55.2100 -118.0730 308° West 384 442 36,000  Level FlightAware ADS-B
Wed 05:12:25 PM 55.2550 -118.1730 308° West 384 442 36,000  Level FlightAware ADS-B
Wed 05:13:01 PM 55.2890 -118.2480 309° West 384 442 36,000  Level FlightAware ADS-B
Wed 05:13:50 PM 55.3340 -118.3510 308° West 384 442 36,000  Level FlightAware ADS-B
Wed 05:14:27 PM 55.3680 -118.4280 308° West 384 442 36,000  Level FlightAware ADS-B
Wed 05:15:01 PM 55.4333 -118.6500 308° West 380 437 36,000  Level Edmonton Center
Wed 05:16:01 PM 55.4833 -118.8167 298° West 380 437 36,000  Level Edmonton Center
Wed 05:17:01 PM 55.5500 -118.9667 308° West 380 437 36,000  Level Edmonton Center
Wed 05:18:01 PM 55.6167 -119.1167 308° West 380 437 36,000  Level Edmonton Center
Wed 05:19:01 PM 55.6667 -119.2667 301° West 380 437 36,000  Level Edmonton Center
Wed 05:20:01 PM 55.7333 -119.4000 312° West 380 437 36,000  Level Edmonton Center
Wed 05:21:01 PM 55.8000 -119.5500 308° West 380 437 36,000  Level Edmonton Center
Wed 05:22:01 PM 55.8667 -119.7000 308° West 380 437 36,000  Level Edmonton Center
Wed 05:23:01 PM 55.9167 -119.8500 301° West 380 437 36,000  Level Edmonton Center
Wed 05:24:01 PM 55.9833 -120.0333 303° West 380 437 36,000  Level Edmonton Center
Wed 05:25:01 PM 56.0500 -120.1833 309° West 380 437 36,000  Level Edmonton Center
Wed 05:26:01 PM 56.1000 -120.3333 301° West 380 437 36,000  Level Edmonton Center
Wed 05:27:01 PM 56.1667 -120.4833 309° West 380 437 36,000  Level Edmonton Center
Wed 05:28:01 PM 56.2333 -120.6333 309° West 380 437 36,000  Level Edmonton Center
Wed 05:29:01 PM 56.3000 -120.8167 303° West 380 437 36,000  Level Edmonton Center
Wed 05:30:01 PM 56.3667 -120.9667 309° West 390 449 36,000  Level Edmonton Center
Wed 05:31:01 PM 56.4333 -121.1167 309° West 390 449 36,000  Level Edmonton Center
Wed 05:32:01 PM 56.4833 -121.2667 301° West 390 449 36,000  Level Edmonton Center
Wed 05:33:01 PM 56.5667 -121.4667 307° West 390 449 36,000  Level Edmonton Center
Wed 05:34:01 PM 56.6000 -121.6167 292° West 390 449 36,000  Level Edmonton Center
Wed 05:35:01 PM 56.6667 -121.7667 309° West 390 449 36,000  Level Edmonton Center
Wed 05:36:01 PM 56.7333 -121.9167 309° West 390 449 36,000  Level Edmonton Center
Wed 05:37:01 PM 56.8000 -122.1167 301° West 400 460 36,000  Level Edmonton Center
Wed 05:38:01 PM 56.8667 -122.2667 309° West 400 460 36,000  Level Edmonton Center
Wed 05:39:01 PM 56.9333 -122.4667 301° West 400 460 36,000  Level Edmonton Center
Wed 05:40:01 PM 56.9833 -122.6167 302° West 400 460 36,000  Level Edmonton Center
Wed 05:41:01 PM 57.0500 -122.7833 306° West 410 472 36,000  Level Edmonton Center
Wed 05:42:01 PM 57.1333 -122.9833 308° West 410 472 36,000  Level Edmonton Center
Wed 05:43:01 PM 57.1833 -123.1333 302° West 410 472 36,000  Level Edmonton Center
Wed 05:44:01 PM 57.2500 -123.3333 302° West 400 460 36,000  Level Edmonton Center
Wed 05:45:01 PM 57.3167 -123.5000 307° West 410 472 36,000  Level Edmonton Center
Wed 05:46:01 PM 57.3667 -123.6833 297° West 400 460 36,000  Level Edmonton Center
Wed 05:47:01 PM 57.4333 -123.8500 307° West 410 472 36,000  Level Edmonton Center
Wed 05:48:01 PM 57.4833 -124.0500 295° West 410 472 36,000  Level Edmonton Center
Wed 05:49:01 PM 57.5500 -124.2000 310° West 400 460 36,000  Level Edmonton Center
Wed 05:50:01 PM 57.6167 -124.4167 300° West 410 472 36,000  Level Edmonton Center
Wed 05:51:01 PM 57.6667 -124.5667 302° West 410 472 36,000  Level Edmonton Center
Wed 05:52:01 PM 57.7500 -124.7500 310° West 410 472 36,000  Level Edmonton Center
Wed 05:54:00 PM 57.8858 -125.0567 302° West  Level FlightAware Approximate
Wed 06:01:00 PM 58.2794 -126.2525 302° West  Level FlightAware Approximate
Wed 06:02:00 PM 58.3346 -126.4257 301° West  Level FlightAware Approximate
Wed 06:03:00 PM 58.3894 -126.5996 301° West  Level FlightAware Approximate
Wed 06:04:00 PM 58.4440 -126.7739 301° West  Level FlightAware Approximate
Wed 06:05:00 PM 58.4984 -126.9489 301° West  Level FlightAware Approximate
Wed 06:06:00 PM 58.5525 -127.1243 301° West  Level FlightAware Approximate
Wed 06:07:00 PM 58.6063 -127.3003 300° West  Level FlightAware Approximate
Wed 06:08:00 PM 58.6600 -127.4768 300° West  Level FlightAware Approximate
Wed 06:09:00 PM 58.7134 -127.6539 300° West  Level FlightAware Approximate
Wed 06:10:00 PM 58.7665 -127.8315 300° West  Level FlightAware Approximate
Wed 06:11:00 PM 58.8194 -128.0097 300° West  Level FlightAware Approximate
Wed 06:12:00 PM 58.8721 -128.1884 300° West  Level FlightAware Approximate
Wed 06:13:00 PM 58.9245 -128.3677 300° West  Level FlightAware Approximate
Wed 06:14:00 PM 58.9766 -128.5475 299° West  Level FlightAware Approximate
Wed 06:15:00 PM 59.0285 -128.7278 299° West  Level FlightAware Approximate
Wed 06:16:00 PM 59.0802 -128.9087 299° West  Level FlightAware Approximate
Wed 06:17:00 PM 59.1316 -129.0901 299° West  Level FlightAware Approximate
Wed 06:18:00 PM 59.1828 -129.2721 299° West  Level FlightAware Approximate
Wed 06:19:00 PM 59.2337 -129.4546 299° West  Level FlightAware Approximate
Wed 06:20:00 PM 59.2843 -129.6377 298° West  Level FlightAware Approximate
Wed 06:21:00 PM 59.3347 -129.8213 298° West  Level FlightAware Approximate
Wed 06:22:00 PM 59.3847 -130.0055 297° West  Level FlightAware Approximate
Wed 06:23:00 PM 59.4323 -130.1925 297° West  Level FlightAware Approximate
Wed 06:24:00 PM 59.4797 -130.3800 296° West  Level FlightAware Approximate
Wed 06:25:00 PM 59.5267 -130.5680 296° West  Level FlightAware Approximate
Wed 06:26:00 PM 59.5735 -130.7565 296° West  Level FlightAware Approximate
Wed 06:27:00 PM 59.6200 -130.9456 296° West  Level FlightAware Approximate
Wed 06:28:00 PM 59.6721 -131.1291 301° West  Level FlightAware Approximate
Wed 06:29:00 PM 59.7212 -131.3160 297° West  Level FlightAware Approximate
Wed 06:30:00 PM 59.7687 -131.5050 297° West  Level FlightAware Approximate
Wed 06:31:00 PM 59.8159 -131.6945 296° West  Level FlightAware Approximate
Wed 06:32:00 PM 59.8629 -131.8845 296° West  Level FlightAware Approximate
Wed 06:33:00 PM 59.9103 -132.0743 297° West  Level FlightAware Approximate
Wed 06:34:00 PM 59.9579 -132.2642 297° West  Level FlightAware Approximate
Wed 06:35:00 PM 60.0053 -132.4546 297° West  Level FlightAware Approximate
Wed 06:36:00 PM 60.0515 -132.6464 295° West  Level FlightAware Approximate
Wed 06:37:00 PM 60.0955 -132.8406 295° West  Level FlightAware Approximate
Wed 06:38:00 PM 60.1393 -133.0353 294° West  Level FlightAware Approximate
Wed 06:39:00 PM 60.1849 -133.2284 296° West  Level FlightAware Approximate
Wed 06:40:00 PM 60.2310 -133.4215 296° West  Level FlightAware Approximate
Wed 06:41:00 PM 60.2768 -133.6150 296° West  Level FlightAware Approximate
Wed 06:42:00 PM 60.3223 -133.8091 295° West  Level FlightAware Approximate
Wed 06:43:00 PM 60.3675 -134.0038 294° West  Level FlightAware Approximate
Wed 06:44:00 PM 60.4112 -134.2001 294° West  Level FlightAware Approximate
Wed 06:45:00 PM 60.4538 -134.3976 293° West  Level FlightAware Approximate
Wed 06:46:00 PM 60.4953 -134.5965 293° West  Level FlightAware Approximate
Wed 06:47:00 PM 60.5369 -134.7955 293° West  Level FlightAware Approximate
Wed 06:48:00 PM 60.5787 -134.9945 293° West  Level FlightAware Approximate
Wed 06:49:00 PM 60.6386 -135.1127 20° North  Level FlightAware Approximate
Wed 06:50:00 PM 60.7000 -135.0667 20° North  Level FlightAware Approximate
Wed 06:51:00 PM 60.7095 -135.0673 20° North  Level Estimated
Wed 06:52:00 PM 60.7095 -135.0673 20° North  Level Estimated
Wed 06:53:00 PM 60.7095 -135.0673 20° North  Level Estimated
Wed 06:54:00 PM 60.7095 -135.0673 20° North  Level Estimated
Wed 06:55:00 PM 60.7095 -135.0673 20° North  Level Estimated
Wed 06:56:00 PM 60.7095 -135.0673 20° North  Level Estimated
Wed 06:57:00 PM 60.7095 -135.0673 20° North  Level Estimated

Login

Don't have an account? Register now (free) for customized features, flight alerts, and more!